Oak Park Heights, Minnesota
Current Conditions -  °F | °C
As of 3:50 AM on Sunday 23 Nov 2014 (Local Time) from K21D Reporting Station
Haze Haze  
Wind Chill: 40°   Ceiling: 400
Heat Index: 45°   Visibility: 2.5mi
Dew Point: 45°   Wind: 8mph
Humidity: 100%   Direction: 190°S
Pressure: 29.46"   Gusts: NA
Location:  45.0713°N, 92.8375°W
Report Text: K21D 230950Z AUTO 19007KT 2 1/2SM BR BKN004 BKN014 OVC023 07/07 A2946 RMK AO2
Loading
Personal Weather Stations






























Interactive Weather Map New forecast layout! Learn more

10-Day Weather Forecast

Advertisements
Track Severe Weather on mobile